Time;durP1;ratioP1;P1;durP2;ratioP2;P2;SDS_P1;SDS_P2;PMS_P1;PMS_P2;Temp;Humidity;BMP_temperature;BMP_pressure;BME280_temperature;BME280_humidity;BME280_pressure;Samples;Min_cycle;Max_cycle;Signal;HPM_P1;HPM_P2
2021/06/22 00:00:16;;;;;;;21.35;6.13;;;;;;;;;;5011436;28;20545;-78
2021/06/22 00:02:42;;;;;;;16.65;4.60;;;;;;;;;;5012173;28;20028;-78
2021/06/22 00:05:08;;;;;;;17.00;5.38;;;;;;;;;;5012332;28;20436;-79
2021/06/22 00:07:35;;;;;;;13.77;4.75;;;;;;;;;;5011104;28;20044;-77
2021/06/22 00:10:01;;;;;;;11.40;5.70;;;;;;;;;;5012197;28;20106;-77
2021/06/22 00:12:26;;;;;;;15.77;5.53;;;;;;;;;;5012138;28;20033;-79
2021/06/22 00:14:52;;;;;;;16.60;6.15;;;;;;;;;;5010820;28;20022;-78
2021/06/22 00:17:17;;;;;;;25.50;6.60;;;;;;;;;;5011430;28;20113;-78
2021/06/22 00:19:43;;;;;;;19.88;5.70;;;;;;;;;;5010680;28;20025;-78
2021/06/22 00:22:08;;;;;;;16.48;5.35;;;;;;;;;;5010750;28;20045;-78
2021/06/22 00:24:35;;;;;;;16.20;5.32;;;;;;;;;;5010951;28;20038;-78
2021/06/22 00:27:01;;;;;;;17.15;5.85;;;;;;;;;;5010187;28;20030;-77
2021/06/22 00:29:27;;;;;;;13.68;4.97;;;;;;;;;;5010520;28;20032;-78
2021/06/22 00:31:52;;;;;;;17.00;6.15;;;;;;;;;;5010334;28;20659;-79
2021/06/22 00:34:18;;;;;;;17.40;5.53;;;;;;;;;;5011779;28;20026;-78
2021/06/22 00:36:44;;;;;;;12.82;4.80;;;;;;;;;;5009824;28;20052;-78
2021/06/22 00:39:09;;;;;;;10.82;4.78;;;;;;;;;;5026763;28;20192;-77
2021/06/22 00:41:36;;;;;;;13.00;5.30;;;;;;;;;;5010690;28;20112;-78
2021/06/22 00:44:06;;;;;;;17.17;4.80;;;;;;;;;;5010378;28;20022;-77
2021/06/22 00:46:32;;;;;;;18.83;5.18;;;;;;;;;;5011854;28;20033;-78
2021/06/22 00:48:58;;;;;;;15.38;5.38;;;;;;;;;;5012708;28;20029;-78
2021/06/22 00:51:23;;;;;;;17.23;5.20;;;;;;;;;;5012873;28;20029;-77
2021/06/22 00:53:49;;;;;;;27.85;5.38;;;;;;;;;;5009991;28;20034;-78
2021/06/22 00:56:14;;;;;;;19.48;5.82;;;;;;;;;;5010008;28;20482;-78
2021/06/22 00:58:42;;;;;;;10.23;4.68;;;;;;;;;;5009677;28;20026;-77
2021/06/22 01:01:08;;;;;;;13.15;4.72;;;;;;;;;;5010027;28;20030;-78
2021/06/22 01:03:35;;;;;;;12.05;4.80;;;;;;;;;;5011196;28;20378;-78
2021/06/22 01:06:01;;;;;;;20.45;5.13;;;;;;;;;;5011015;28;20037;-77
2021/06/22 01:08:27;;;;;;;17.25;5.65;;;;;;;;;;5009821;28;20026;-78
2021/06/22 01:10:53;;;;;;;15.52;5.70;;;;;;;;;;5009429;28;20049;-78
2021/06/22 01:13:19;;;;;;;10.90;4.70;;;;;;;;;;5011151;28;20037;-78
2021/06/22 01:15:45;;;;;;;14.40;5.18;;;;;;;;;;5011343;28;20380;-78
2021/06/22 01:18:11;;;;;;;12.63;5.00;;;;;;;;;;5011102;28;20025;-78
2021/06/22 01:20:37;;;;;;;11.27;4.72;;;;;;;;;;5010961;28;20034;-78
2021/06/22 01:23:05;;;;;;;15.40;4.93;;;;;;;;;;5010745;28;20049;-77
2021/06/22 01:25:32;;;;;;;14.32;5.25;;;;;;;;;;5009438;28;20580;-78
2021/06/22 01:27:58;;;;;;;20.02;5.85;;;;;;;;;;5010667;28;20540;-78
2021/06/22 01:30:29;;;;;;;15.93;5.60;;;;;;;;;;5026000;28;20037;-78
2021/06/22 01:32:56;;;;;;;13.65;5.72;;;;;;;;;;5010474;28;20030;-78
2021/06/22 01:35:21;;;;;;;16.95;5.45;;;;;;;;;;5010737;28;20084;-79
2021/06/22 01:37:57;;;;;;;19.33;6.90;;;;;;;;;;5009207;28;20056;-78
2021/06/22 01:40:22;;;;;;;18.55;5.43;;;;;;;;;;5010605;28;20030;-76
2021/06/22 01:42:48;;;;;;;11.40;5.13;;;;;;;;;;5009067;28;20036;-79
2021/06/22 01:45:15;;;;;;;15.45;5.05;;;;;;;;;;5009159;28;20068;-78
2021/06/22 01:47:41;;;;;;;18.38;6.60;;;;;;;;;;5008614;28;20445;-78
2021/06/22 01:50:07;;;;;;;12.95;5.47;;;;;;;;;;5009304;28;20037;-78
2021/06/22 01:52:33;;;;;;;15.77;5.07;;;;;;;;;;5008678;28;20041;-79
2021/06/22 01:55:33;;;;;;;21.13;6.00;;;;;;;;;;4992398;28;20038;-77
2021/06/22 01:57:45;;;;;;;22.40;5.53;;;;;;;;;;5009985;28;20315;-78
2021/06/22 02:00:12;;;;;;;16.08;4.47;;;;;;;;;;5008874;28;20040;-78
2021/06/22 02:02:37;;;;;;;21.50;5.85;;;;;;;;;;5010216;28;20393;-78
2021/06/22 02:05:04;;;;;;;17.65;5.65;;;;;;;;;;5008820;28;20040;-78
2021/06/22 02:07:29;;;;;;;20.30;5.85;;;;;;;;;;5008854;28;20125;-78
2021/06/22 02:09:55;;;;;;;17.33;6.22;;;;;;;;;;5008578;28;20124;-77
2021/06/22 02:12:20;;;;;;;22.50;6.47;;;;;;;;;;5008536;28;20120;-78
2021/06/22 02:14:46;;;;;;;18.83;5.53;;;;;;;;;;5008419;28;20030;-77
2021/06/22 02:17:11;;;;;;;17.05;6.47;;;;;;;;;;5008710;28;20032;-78
2021/06/22 02:19:37;;;;;;;17.20;5.35;;;;;;;;;;5008915;28;20120;-79
2021/06/22 02:22:02;;;;;;;23.45;6.32;;;;;;;;;;5008416;28;20042;-78
2021/06/22 02:24:28;;;;;;;20.90;5.15;;;;;;;;;;5010362;28;20033;-78
2021/06/22 02:26:53;;;;;;;18.35;5.95;;;;;;;;;;5008025;28;20025;-78
2021/06/22 02:29:19;;;;;;;28.10;7.30;;;;;;;;;;5008579;28;20057;-78
2021/06/22 02:31:44;;;;;;;20.23;5.85;;;;;;;;;;5008254;28;20034;-77
2021/06/22 02:34:10;;;;;;;26.75;5.82;;;;;;;;;;5009758;28;20032;-78
2021/06/22 02:36:35;;;;;;;18.00;5.40;;;;;;;;;;5008483;28;20058;-77
2021/06/22 02:39:01;;;;;;;19.05;5.68;;;;;;;;;;5008215;28;20057;-79
2021/06/22 02:41:26;;;;;;;19.10;6.10;;;;;;;;;;5008303;28;20038;-78
2021/06/22 02:43:52;;;;;;;21.65;7.05;;;;;;;;;;5007993;28;20112;-77
2021/06/22 02:46:17;;;;;;;21.95;5.57;;;;;;;;;;5009708;28;20034;-78
2021/06/22 02:48:43;;;;;;;18.92;5.93;;;;;;;;;;5009748;28;20104;-78
2021/06/22 02:51:08;;;;;;;15.30;5.47;;;;;;;;;;5008072;28;20488;-77
2021/06/22 02:53:34;;;;;;;17.45;5.25;;;;;;;;;;5009538;28;20719;-77
2021/06/22 02:55:59;;;;;;;12.45;4.63;;;;;;;;;;5009340;28;20036;-78
2021/06/22 02:58:25;;;;;;;12.32;5.65;;;;;;;;;;5008473;28;20048;-79
2021/06/22 03:00:50;;;;;;;13.52;4.90;;;;;;;;;;5012442;28;20475;-79
2021/06/22 03:03:16;;;;;;;14.80;5.05;;;;;;;;;;5013820;28;20109;-78
2021/06/22 03:05:41;;;;;;;13.63;4.88;;;;;;;;;;5012245;28;20478;-78
2021/06/22 03:08:07;;;;;;;13.52;4.57;;;;;;;;;;5013447;28;20033;-77
2021/06/22 03:10:32;;;;;;;17.35;5.18;;;;;;;;;;5012206;28;20037;-78
2021/06/22 03:12:58;;;;;;;12.35;6.10;;;;;;;;;;5011808;28;20489;-78
2021/06/22 03:15:24;;;;;;;9.02;4.35;;;;;;;;;;5013632;28;20044;-79
2021/06/22 03:17:50;;;;;;;13.52;5.20;;;;;;;;;;5013376;28;20104;-78
2021/06/22 03:20:16;;;;;;;15.25;5.30;;;;;;;;;;5028676;28;20121;-79
2021/06/22 03:22:43;;;;;;;14.35;5.82;;;;;;;;;;5012140;28;20433;-77
2021/06/22 03:25:10;;;;;;;14.55;7.03;;;;;;;;;;5013208;28;20060;-78
2021/06/22 03:27:36;;;;;;;10.25;5.78;;;;;;;;;;5011827;28;20061;-78
2021/06/22 03:30:05;;;;;;;13.13;5.95;;;;;;;;;;5011794;28;20042;-78
2021/06/22 03:32:31;;;;;;;9.07;6.32;;;;;;;;;;5011840;28;20026;-77
2021/06/22 03:34:56;;;;;;;18.42;7.65;;;;;;;;;;5013079;28;20184;-78
2021/06/22 03:37:22;;;;;;;13.82;6.60;;;;;;;;;;5013587;28;20341;-78
2021/06/22 03:39:49;;;;;;;11.13;5.82;;;;;;;;;;5011591;28;20068;-77
2021/06/22 03:42:14;;;;;;;10.30;5.88;;;;;;;;;;5028305;28;20040;-77
2021/06/22 03:44:40;;;;;;;14.75;5.75;;;;;;;;;;5011582;28;20472;-78
2021/06/22 03:47:06;;;;;;;15.15;5.78;;;;;;;;;;4995375;28;20409;-78
2021/06/22 03:49:32;;;;;;;13.77;8.27;;;;;;;;;;5012934;28;20254;-77
2021/06/22 03:51:58;;;;;;;15.35;7.57;;;;;;;;;;5011252;28;20037;-78
2021/06/22 03:54:24;;;;;;;14.43;8.50;;;;;;;;;;5011384;28;20054;-78
2021/06/22 03:56:49;;;;;;;19.38;8.50;;;;;;;;;;5011719;28;20430;-79
2021/06/22 03:59:15;;;;;;;10.07;8.75;;;;;;;;;;5011662;28;20026;-78
2021/06/22 04:01:40;;;;;;;13.27;9.63;;;;;;;;;;5011696;28;20238;-79
2021/06/22 04:04:06;;;;;;;19.30;12.60;;;;;;;;;;5011339;28;20068;-78
2021/06/22 04:06:31;;;;;;;23.00;14.50;;;;;;;;;;5044279;28;20040;-78
2021/06/22 04:08:57;;;;;;;11.80;9.13;;;;;;;;;;5043677;28;20095;-79
2021/06/22 04:11:24;;;;;;;18.90;11.38;;;;;;;;;;5010363;28;20458;-79
2021/06/22 04:13:49;;;;;;;18.88;10.65;;;;;;;;;;5012248;28;20057;-77
2021/06/22 04:16:15;;;;;;;19.10;9.10;;;;;;;;;;5011052;28;20520;-77
2021/06/22 04:18:40;;;;;;;13.02;9.98;;;;;;;;;;5012369;28;20119;-78
2021/06/22 04:21:06;;;;;;;14.93;10.50;;;;;;;;;;5010608;28;20168;-78
2021/06/22 04:23:32;;;;;;;16.17;10.63;;;;;;;;;;5044083;28;20026;-78
2021/06/22 04:25:57;;;;;;;13.00;9.85;;;;;;;;;;5011659;28;20022;-78
2021/06/22 04:28:23;;;;;;;17.80;10.65;;;;;;;;;;5012071;28;20092;-79
2021/06/22 04:30:49;;;;;;;15.32;11.10;;;;;;;;;;5010822;28;20029;-78
2021/06/22 04:33:14;;;;;;;16.52;10.98;;;;;;;;;;5011926;28;20359;-77
2021/06/22 04:35:40;;;;;;;18.60;12.18;;;;;;;;;;5027119;28;20408;-78
2021/06/22 04:38:07;;;;;;;21.77;12.45;;;;;;;;;;5010488;28;20026;-78
2021/06/22 04:40:34;;;;;;;19.00;11.73;;;;;;;;;;5027029;28;20372;-77
2021/06/22 04:43:01;;;;;;;18.05;12.55;;;;;;;;;;5011769;28;20025;-79
2021/06/22 04:45:27;;;;;;;21.45;12.50;;;;;;;;;;5012992;28;20018;-77
2021/06/22 04:47:54;;;;;;;18.05;12.10;;;;;;;;;;5044932;28;20030;-79
2021/06/22 04:50:20;;;;;;;15.85;10.05;;;;;;;;;;5045995;28;20030;-77
2021/06/22 04:52:46;;;;;;;20.33;14.40;;;;;;;;;;5013207;28;20390;-79
2021/06/22 04:55:12;;;;;;;17.00;11.05;;;;;;;;;;5013414;28;20026;-78
2021/06/22 04:57:40;;;;;;;14.15;9.38;;;;;;;;;;5010747;28;20037;-79
2021/06/22 05:00:07;;;;;;;14.52;10.60;;;;;;;;;;5011436;28;20057;-77
2021/06/22 05:02:34;;;;;;;11.35;8.48;;;;;;;;;;5011742;28;20021;-77
2021/06/22 05:05:03;;;;;;;10.48;8.25;;;;;;;;;;5009744;28;20026;-80
2021/06/22 05:07:29;;;;;;;13.32;8.23;;;;;;;;;;5011179;28;20491;-78
2021/06/22 05:09:55;;;;;;;13.68;8.13;;;;;;;;;;5009996;28;20532;-78
2021/06/22 05:12:20;;;;;;;11.32;7.07;;;;;;;;;;5011098;28;20600;-77
2021/06/22 05:14:47;;;;;;;8.25;6.97;;;;;;;;;;5011419;28;20053;-77
2021/06/22 05:17:13;;;;;;;8.95;6.75;;;;;;;;;;5011523;28;20393;-78
2021/06/22 05:19:38;;;;;;;13.98;6.72;;;;;;;;;;5010475;28;20113;-76
2021/06/22 05:22:04;;;;;;;8.57;7.07;;;;;;;;;;5009227;28;20112;-76
2021/06/22 05:24:30;;;;;;;10.43;7.03;;;;;;;;;;5009540;28;20473;-77
2021/06/22 05:26:56;;;;;;;10.27;7.32;;;;;;;;;;5009720;28;20370;-77
2021/06/22 05:29:22;;;;;;;10.32;7.45;;;;;;;;;;5010163;28;20117;-78
2021/06/22 05:31:47;;;;;;;14.13;8.82;;;;;;;;;;5011570;28;20399;-78
2021/06/22 05:34:13;;;;;;;9.15;7.30;;;;;;;;;;5010726;28;20088;-79
2021/06/22 05:36:38;;;;;;;16.23;10.13;;;;;;;;;;5011517;28;20096;-79
2021/06/22 05:39:04;;;;;;;14.35;10.23;;;;;;;;;;5010934;28;20054;-79
2021/06/22 05:41:30;;;;;;;18.48;12.25;;;;;;;;;;5009437;28;20045;-78
2021/06/22 05:43:55;;;;;;;11.57;8.60;;;;;;;;;;5010485;28;20527;-77
2021/06/22 05:46:21;;;;;;;12.15;9.38;;;;;;;;;;5008361;28;20059;-78
2021/06/22 05:48:46;;;;;;;17.73;11.40;;;;;;;;;;5010636;28;20030;-78
2021/06/22 05:51:12;;;;;;;14.07;10.60;;;;;;;;;;5027089;28;20236;-79
2021/06/22 05:53:37;;;;;;;17.13;10.30;;;;;;;;;;5011925;28;20092;-79
2021/06/22 05:56:03;;;;;;;16.90;12.25;;;;;;;;;;5011748;28;20030;-78
2021/06/22 05:58:29;;;;;;;14.70;11.77;;;;;;;;;;5012021;28;20030;-78
2021/06/22 06:00:54;;;;;;;15.15;11.93;;;;;;;;;;5012283;28;20048;-78
2021/06/22 06:03:21;;;;;;;16.38;11.63;;;;;;;;;;5026007;28;20529;-78
2021/06/22 06:05:47;;;;;;;14.90;11.02;;;;;;;;;;5009745;28;20034;-78
2021/06/22 06:08:12;;;;;;;18.23;12.10;;;;;;;;;;5009720;28;20068;-78
2021/06/22 06:10:39;;;;;;;14.98;12.77;;;;;;;;;;5008675;28;20451;-78
2021/06/22 06:13:04;;;;;;;13.80;10.90;;;;;;;;;;5008342;28;20030;-79
2021/06/22 06:15:30;;;;;;;15.02;11.45;;;;;;;;;;5025387;28;20022;-78
2021/06/22 06:17:55;;;;;;;11.27;9.00;;;;;;;;;;5010031;28;20029;-76
2021/06/22 06:20:21;;;;;;;18.40;10.43;;;;;;;;;;5009675;28;20142;-77
2021/06/22 06:22:47;;;;;;;16.27;9.32;;;;;;;;;;5005435;28;20775;-77
2021/06/22 06:25:14;;;;;;;14.55;9.50;;;;;;;;;;5016752;28;20022;-78
2021/06/22 06:30:22;;;;;;;62.53;34.28;;;;;;;;;;5014430;28;20027;-78
2021/06/22 06:32:48;;;;;;;14.25;9.98;;;;;;;;;;5041902;28;20052;-77
2021/06/22 06:35:15;;;;;;;12.15;8.88;;;;;;;;;;5006425;28;20029;-79
2021/06/22 06:37:41;;;;;;;18.05;10.30;;;;;;;;;;5006720;28;20034;-78
2021/06/22 06:40:08;;;;;;;17.00;9.52;;;;;;;;;;5007851;28;20459;-77
2021/06/22 06:42:34;;;;;;;12.18;8.45;;;;;;;;;;5022363;28;20274;-80
2021/06/22 06:44:59;;;;;;;10.80;8.38;;;;;;;;;;5000668;28;20033;-78
2021/06/22 06:47:25;;;;;;;11.80;8.00;;;;;;;;;;5002767;28;20033;-78
2021/06/22 06:49:52;;;;;;;16.77;8.25;;;;;;;;;;5003471;28;20037;-79
2021/06/22 06:52:19;;;;;;;8.13;6.70;;;;;;;;;;5002754;28;20152;-78
2021/06/22 06:54:45;;;;;;;11.05;7.28;;;;;;;;;;5000363;28;20120;-78
2021/06/22 06:57:10;;;;;;;9.93;7.20;;;;;;;;;;5004797;28;20548;-79
2021/06/22 06:59:36;;;;;;;11.93;7.47;;;;;;;;;;5004320;28;20105;-78
2021/06/22 07:02:02;;;;;;;9.32;6.63;;;;;;;;;;5002831;28;20034;-77
2021/06/22 07:04:27;;;;;;;10.05;6.88;;;;;;;;;;5003005;28;20405;-77
2021/06/22 07:06:53;;;;;;;8.68;6.80;;;;;;;;;;5002443;28;20049;-77
2021/06/22 07:09:18;;;;;;;7.97;6.80;;;;;;;;;;5004481;28;20507;-77
2021/06/22 07:11:44;;;;;;;6.90;5.97;;;;;;;;;;5000050;28;20045;-77
2021/06/22 07:14:14;;;;;;;11.35;7.40;;;;;;;;;;5002572;28;20096;-78
2021/06/22 07:16:40;;;;;;;11.45;7.15;;;;;;;;;;5002069;28;20532;-79
2021/06/22 07:19:06;;;;;;;11.18;8.82;;;;;;;;;;5002201;28;20049;-78
2021/06/22 07:21:31;;;;;;;16.02;11.32;;;;;;;;;;5000449;28;20041;-77
2021/06/22 07:23:57;;;;;;;12.73;9.85;;;;;;;;;;5002957;28;20091;-78
2021/06/22 07:26:22;;;;;;;12.80;9.80;;;;;;;;;;5002631;28;20084;-78
2021/06/22 07:28:48;;;;;;;15.30;11.48;;;;;;;;;;5002500;28;20103;-76
2021/06/22 07:31:13;;;;;;;14.38;10.52;;;;;;;;;;5000968;28;20073;-78
2021/06/22 07:33:40;;;;;;;11.02;7.95;;;;;;;;;;5002583;28;20182;-80
2021/06/22 07:36:08;;;;;;;10.52;8.60;;;;;;;;;;5000332;28;20049;-78
2021/06/22 07:38:35;;;;;;;11.77;9.70;;;;;;;;;;5002716;28;20030;-77
2021/06/22 07:41:00;;;;;;;13.25;9.98;;;;;;;;;;4984327;28;20037;-78
2021/06/22 07:43:26;;;;;;;9.90;8.75;;;;;;;;;;4999778;28;20041;-77
2021/06/22 07:45:52;;;;;;;12.02;9.15;;;;;;;;;;5001876;28;20452;-79
2021/06/22 07:48:18;;;;;;;8.25;6.05;;;;;;;;;;5006582;28;20355;-79
2021/06/22 07:50:43;;;;;;;11.07;9.02;;;;;;;;;;5006702;28;20048;-79
2021/06/22 07:53:09;;;;;;;6.60;5.38;;;;;;;;;;5001556;28;20057;-78
2021/06/22 07:55:35;;;;;;;4.85;4.32;;;;;;;;;;5005902;28;20030;-78
2021/06/22 07:58:01;;;;;;;6.07;4.20;;;;;;;;;;5004262;28;20034;-78
2021/06/22 08:00:43;;;;;;;10.02;6.93;;;;;;;;;;5007211;28;20159;-78
2021/06/22 08:03:14;;;;;;;8.07;4.47;;;;;;;;;;5004473;28;20029;-79
2021/06/22 08:05:41;;;;;;;4.85;3.67;;;;;;;;;;5006221;28;20038;-79
2021/06/22 08:08:09;;;;;;;7.05;3.90;;;;;;;;;;5020271;28;20029;-78
2021/06/22 08:10:35;;;;;;;3.83;3.10;;;;;;;;;;5005260;28;20049;-78
2021/06/22 08:13:01;;;;;;;4.05;3.22;;;;;;;;;;5004156;28;20034;-77
2021/06/22 08:15:28;;;;;;;6.97;3.65;;;;;;;;;;5002903;28;20374;-78
2021/06/22 08:17:53;;;;;;;4.30;3.08;;;;;;;;;;5004407;28;20026;-78
2021/06/22 08:20:20;;;;;;;4.38;3.05;;;;;;;;;;4999375;28;20121;-78
2021/06/22 08:22:51;;;;;;;6.13;4.00;;;;;;;;;;5002156;28;20038;-79
2021/06/22 08:25:17;;;;;;;3.63;2.40;;;;;;;;;;5020868;28;20457;-81
2021/06/22 08:27:45;;;;;;;6.18;3.03;;;;;;;;;;5003300;28;20509;-78
2021/06/22 08:30:12;;;;;;;4.20;3.03;;;;;;;;;;5019818;28;20040;-79
2021/06/22 08:32:38;;;;;;;7.40;3.10;;;;;;;;;;5004142;28;20057;-78
2021/06/22 08:35:04;;;;;;;3.03;2.65;;;;;;;;;;5005943;28;20712;-79
2021/06/22 08:37:30;;;;;;;5.40;3.13;;;;;;;;;;5004599;28;20109;-79
2021/06/22 08:39:56;;;;;;;9.27;3.85;;;;;;;;;;5007549;28;20552;-79
2021/06/22 08:42:23;;;;;;;5.07;3.97;;;;;;;;;;4985085;28;20559;-78
2021/06/22 08:44:52;;;;;;;5.43;4.18;;;;;;;;;;5005551;28;20088;-78
2021/06/22 08:47:23;;;;;;;4.15;2.58;;;;;;;;;;5003068;28;20109;-80
2021/06/22 08:49:53;;;;;;;4.07;2.63;;;;;;;;;;5005738;28;20548;-78
2021/06/22 08:52:24;;;;;;;5.20;3.28;;;;;;;;;;4992352;28;20130;-77
2021/06/22 08:54:50;;;;;;;4.43;2.90;;;;;;;;;;5020455;28;20046;-78
2021/06/22 08:57:16;;;;;;;5.05;3.97;;;;;;;;;;4996989;28;20366;-78
2021/06/22 08:59:42;;;;;;;4.25;2.80;;;;;;;;;;4993041;28;20127;-79
2021/06/22 09:02:08;;;;;;;4.53;3.03;;;;;;;;;;5003203;28;20088;-80
2021/06/22 09:04:33;;;;;;;5.70;2.55;;;;;;;;;;5006198;28;20022;-78
2021/06/22 09:06:59;;;;;;;4.10;2.88;;;;;;;;;;5006580;28;20040;-78
2021/06/22 09:09:40;;;;;;;4.60;2.33;;;;;;;;;;5006133;28;20041;-77
2021/06/22 09:12:06;;;;;;;5.43;3.97;;;;;;;;;;5003287;28;20057;-78
2021/06/22 09:14:34;;;;;;;5.88;3.17;;;;;;;;;;5004746;28;20041;-79
2021/06/22 09:17:01;;;;;;;8.63;4.75;;;;;;;;;;5020247;28;20087;-80
2021/06/22 09:19:27;;;;;;;3.97;2.92;;;;;;;;;;5004463;28;20076;-79
2021/06/22 09:21:53;;;;;;;5.20;2.80;;;;;;;;;;5004000;28;20894;-78
2021/06/22 09:24:21;;;;;;;5.25;2.97;;;;;;;;;;5006024;28;20010;-78
2021/06/22 09:26:50;;;;;;;4.97;2.60;;;;;;;;;;4995083;28;20741;-79
2021/06/22 09:29:20;;;;;;;6.20;2.40;;;;;;;;;;5003311;28;20151;-78
2021/06/22 09:31:59;;;;;;;4.80;3.15;;;;;;;;;;4984268;28;20463;-78
2021/06/22 09:34:27;;;;;;;7.38;4.22;;;;;;;;;;4997558;28;20022;-77
2021/06/22 09:36:55;;;;;;;4.35;2.45;;;;;;;;;;5002167;28;20113;-80
2021/06/22 09:39:22;;;;;;;8.07;3.78;;;;;;;;;;5002219;28;20022;-78
2021/06/22 09:41:49;;;;;;;5.35;3.33;;;;;;;;;;5000792;28;20034;-78
2021/06/22 09:44:22;;;;;;;2.88;2.28;;;;;;;;;;5000491;28;20408;-78
2021/06/22 09:46:51;;;;;;;7.22;2.92;;;;;;;;;;4995029;28;20034;-79
2021/06/22 09:49:20;;;;;;;8.02;2.50;;;;;;;;;;5002386;28;20061;-79
2021/06/22 09:51:52;;;;;;;2.63;2.38;;;;;;;;;;5017296;28;20132;-80
2021/06/22 09:54:34;;;;;;;7.10;3.90;;;;;;;;;;5003175;28;20136;-79
2021/06/22 09:57:06;;;;;;;4.07;2.92;;;;;;;;;;5016813;28;20026;-78
2021/06/22 09:59:46;;;;;;;;;;;;;;;;;;5005367;28;20018;-79
2021/06/22 10:02:12;;;;;;;2.85;2.45;;;;;;;;;;5002070;28;19913;-79
2021/06/22 10:04:43;;;;;;;2.95;2.75;;;;;;;;;;5005895;28;20397;-78
2021/06/22 10:07:10;;;;;;;3.92;2.72;;;;;;;;;;5001960;28;20493;-78
2021/06/22 10:09:37;;;;;;;3.90;2.75;;;;;;;;;;5002357;28;20053;-79
2021/06/22 10:12:16;;;;;;;2.90;2.50;;;;;;;;;;5001408;28;20030;-79
2021/06/22 10:14:50;;;;;;;3.65;2.70;;;;;;;;;;5005599;28;20034;-79
2021/06/22 10:17:18;;;;;;;3.90;2.00;;;;;;;;;;5006729;28;20586;-79
2021/06/22 10:19:46;;;;;;;4.30;2.15;;;;;;;;;;5008229;28;20040;-79
2021/06/22 10:22:14;;;;;;;4.78;2.60;;;;;;;;;;5020033;28;20059;-78
2021/06/22 10:24:45;;;;;;;6.63;2.70;;;;;;;;;;5011599;28;20045;-77
2021/06/22 10:27:12;;;;;;;3.33;2.20;;;;;;;;;;5004010;28;20068;-78
2021/06/22 10:29:38;;;;;;;2.92;2.67;;;;;;;;;;5003103;28;20057;-78
2021/06/22 10:32:05;;;;;;;4.57;2.70;;;;;;;;;;5002994;28;20053;-80
2021/06/22 10:34:32;;;;;;;3.25;2.85;;;;;;;;;;5017656;28;20034;-77
2021/06/22 10:37:00;;;;;;;5.18;3.13;;;;;;;;;;4984488;28;20032;-78
2021/06/22 10:39:31;;;;;;;3.38;2.20;;;;;;;;;;5016139;28;20172;-78
2021/06/22 10:42:04;;;;;;;4.07;2.63;;;;;;;;;;4995950;28;20036;-78
2021/06/22 10:44:49;;;;;;;7.35;2.95;;;;;;;;;;5002511;28;20045;-76
2021/06/22 10:47:32;;;;;;;3.35;2.10;;;;;;;;;;5001685;28;20038;-81
2021/06/22 10:50:12;;;;;;;4.25;2.50;;;;;;;;;;5017890;28;20090;-77
2021/06/22 10:52:41;;;;;;;5.55;2.35;;;;;;;;;;5002475;28;20121;-78
2021/06/22 10:55:32;;;;;;;5.50;2.30;;;;;;;;;;5004926;28;20033;-76
2021/06/22 10:57:57;;;;;;;9.40;2.60;;;;;;;;;;4992095;28;20034;-78
2021/06/22 11:00:28;;;;;;;3.05;2.30;;;;;;;;;;5003686;28;20044;-79
2021/06/22 11:03:02;;;;;;;6.38;2.25;;;;;;;;;;5031991;28;20033;-79
2021/06/22 11:05:31;;;;;;;3.05;2.45;;;;;;;;;;5002488;28;20030;-80
2021/06/22 11:08:33;;;;;;;7.20;2.10;;;;;;;;;;5007023;28;20528;-79
2021/06/22 11:10:59;;;;;;;5.80;1.90;;;;;;;;;;5008642;28;20025;-79
2021/06/22 11:13:34;;;;;;;2.47;2.10;;;;;;;;;;5006836;28;20433;-79
2021/06/22 11:16:05;;;;;;;4.70;1.95;;;;;;;;;;5010151;28;20038;-79
2021/06/22 11:18:53;;;;;;;7.57;6.57;;;;;;;;;;5008038;28;20029;-78
2021/06/22 11:21:47;;;;;;;32.83;18.27;;;;;;;;;;5009481;28;20462;-77
2021/06/22 11:24:25;;;;;;;7.18;2.58;;;;;;;;;;5002370;28;20022;-76
2021/06/22 11:26:52;;;;;;;3.75;2.08;;;;;;;;;;5008674;28;20037;-78
2021/06/22 11:29:25;;;;;;;6.07;2.80;;;;;;;;;;5004513;28;20677;-78
2021/06/22 11:31:51;;;;;;;6.72;2.17;;;;;;;;;;5023743;28;20034;-78
2021/06/22 11:34:21;;;;;;;5.90;3.10;;;;;;;;;;5004617;28;20068;-79
2021/06/22 11:36:54;;;;;;;7.13;2.58;;;;;;;;;;5023668;28;20394;-78
2021/06/22 11:39:27;;;;;;;5.65;2.95;;;;;;;;;;5003598;28;20385;-79
2021/06/22 11:42:25;;;;;;;8.68;3.30;;;;;;;;;;5003352;28;20056;-76
2021/06/22 11:44:52;;;;;;;5.95;2.22;;;;;;;;;;5006251;28;20033;-78
2021/06/22 11:47:27;;;;;;;4.05;2.22;;;;;;;;;;5007573;28;20026;-78
2021/06/22 11:50:00;;;;;;;6.03;2.22;;;;;;;;;;5007126;28;20028;-77
2021/06/22 11:52:40;;;;;;;6.50;3.50;;;;;;;;;;5011450;28;20018;-77
2021/06/22 11:55:14;;;;;;;8.82;5.22;;;;;;;;;;5009998;28;20470;-79
2021/06/22 11:57:47;;;;;;;8.23;3.17;;;;;;;;;;5008771;28;20450;-77
2021/06/22 12:00:16;;;;;;;6.82;2.60;;;;;;;;;;5010926;28;20049;-80
2021/06/22 12:02:49;;;;;;;7.20;3.35;;;;;;;;;;5012070;28;20025;-78
2021/06/22 12:05:17;;;;;;;4.43;2.63;;;;;;;;;;5010032;28;20068;-77
2021/06/22 12:07:54;;;;;;;4.45;2.22;;;;;;;;;;5024728;28;20113;-80
2021/06/22 12:10:25;;;;;;;9.25;3.22;;;;;;;;;;5011669;28;20026;-77
2021/06/22 12:12:52;;;;;;;6.85;2.05;;;;;;;;;;5009044;28;20457;-76
2021/06/22 12:15:38;;;;;;;6.60;2.35;;;;;;;;;;5010014;28;20041;-78
2021/06/22 12:18:04;;;;;;;7.38;3.42;;;;;;;;;;5005550;28;20493;-76
2021/06/22 12:20:33;;;;;;;4.55;3.03;;;;;;;;;;5008332;28;20747;-79
2021/06/22 12:23:15;;;;;;;4.68;2.78;;;;;;;;;;5012904;28;20036;-78
2021/06/22 12:25:48;;;;;;;2.63;1.77;;;;;;;;;;5011133;28;20041;-76
2021/06/22 12:28:15;;;;;;;5.68;2.47;;;;;;;;;;5039998;28;20030;-78
2021/06/22 12:30:48;;;;;;;5.97;2.20;;;;;;;;;;5008291;28;20045;-79
2021/06/22 12:33:13;;;;;;;10.45;4.32;;;;;;;;;;5005417;28;20049;-78
2021/06/22 12:35:40;;;;;;;8.52;3.72;;;;;;;;;;5009525;28;20061;-77
2021/06/22 12:38:08;;;;;;;3.20;2.53;;;;;;;;;;5008013;28;20747;-78
2021/06/22 12:40:57;;;;;;;4.25;2.38;;;;;;;;;;5002635;28;20046;-75
2021/06/22 12:43:48;;;;;;;11.15;3.53;;;;;;;;;;5021949;28;20029;-78
2021/06/22 12:46:21;;;;;;;4.18;2.63;;;;;;;;;;5009438;28;20048;-77
2021/06/22 12:49:10;;;;;;;3.65;2.33;;;;;;;;;;5005730;28;20085;-78
2021/06/22 12:51:48;;;;;;;7.07;3.28;;;;;;;;;;5011228;28;20029;-77
2021/06/22 12:54:14;;;;;;;7.18;3.70;;;;;;;;;;5008422;28;20386;-78
2021/06/22 12:56:50;;;;;;;5.22;2.72;;;;;;;;;;5007957;28;20030;-78
2021/06/22 12:59:21;;;;;;;7.47;2.92;;;;;;;;;;5039634;28;20555;-77
2021/06/22 13:01:47;;;;;;;4.97;2.45;;;;;;;;;;5013498;28;20121;-78
2021/06/22 13:04:15;;;;;;;5.85;2.65;;;;;;;;;;5009618;28;20125;-79
2021/06/22 13:06:44;;;;;;;3.97;2.97;;;;;;;;;;5000044;28;20116;-78
2021/06/22 13:09:11;;;;;;;4.05;3.22;;;;;;;;;;5009518;28;20018;-77
2021/06/22 13:11:47;;;;;;;8.40;4.03;;;;;;;;;;5010388;28;20529;-76
2021/06/22 13:14:25;;;;;;;2.95;2.47;;;;;;;;;;5005144;28;20502;-77
2021/06/22 13:16:56;;;;;;;5.95;2.90;;;;;;;;;;5001397;28;20045;-76
2021/06/22 13:19:23;;;;;;;3.08;2.47;;;;;;;;;;5008363;28;20046;-78
2021/06/22 13:22:00;;;;;;;2.97;2.60;;;;;;;;;;5010711;28;20080;-78
2021/06/22 13:24:31;;;;;;;5.97;2.90;;;;;;;;;;5006179;28;20024;-78
2021/06/22 13:27:00;;;;;;;5.00;3.28;;;;;;;;;;5014028;28;20033;-80
2021/06/22 13:29:27;;;;;;;3.38;2.40;;;;;;;;;;5005002;28;20365;-78
2021/06/22 13:31:58;;;;;;;4.57;2.80;;;;;;;;;;5011706;28;20025;-80
2021/06/22 13:34:28;;;;;;;9.15;2.60;;;;;;;;;;5010513;28;20052;-79
2021/06/22 13:36:55;;;;;;;5.22;2.28;;;;;;;;;;5006921;28;20839;-76
2021/06/22 13:39:22;;;;;;;3.20;2.40;;;;;;;;;;5027744;28;20124;-77
2021/06/22 13:41:47;;;;;;;5.57;2.45;;;;;;;;;;5009532;28;20458;-78
2021/06/22 13:44:13;;;;;;;6.32;3.40;;;;;;;;;;5008434;28;20018;-77
2021/06/22 13:46:39;;;;;;;8.63;4.07;;;;;;;;;;5008620;28;20115;-78
2021/06/22 13:49:05;;;;;;;5.75;2.30;;;;;;;;;;5008908;28;20744;-77
2021/06/22 13:51:33;;;;;;;3.00;2.20;;;;;;;;;;5006635;28;20069;-79
2021/06/22 13:54:06;;;;;;;5.28;2.45;;;;;;;;;;5009129;28;20038;-78
2021/06/22 13:56:33;;;;;;;4.20;2.90;;;;;;;;;;5009712;28;20084;-78
2021/06/22 13:58:59;;;;;;;4.15;2.20;;;;;;;;;;5008360;28;20040;-79
2021/06/22 14:01:25;;;;;;;3.83;2.10;;;;;;;;;;5008640;28;20084;-79
2021/06/22 14:03:54;;;;;;;5.95;2.13;;;;;;;;;;5024127;28;20334;-78
2021/06/22 14:06:19;;;;;;;7.97;1.90;;;;;;;;;;5009088;28;20108;-78
2021/06/22 14:08:45;;;;;;;3.47;1.90;;;;;;;;;;5009399;28;20112;-78
2021/06/22 14:11:10;;;;;;;5.68;2.90;;;;;;;;;;5009068;28;20034;-78
2021/06/22 14:13:36;;;;;;;3.10;2.00;;;;;;;;;;5004224;28;20061;-78
2021/06/22 14:16:02;;;;;;;5.78;2.38;;;;;;;;;;5003978;28;20635;-78
2021/06/22 14:18:30;;;;;;;6.60;3.30;;;;;;;;;;5007463;28;20077;-78
2021/06/22 14:20:56;;;;;;;6.90;2.42;;;;;;;;;;5007766;28;20032;-78
2021/06/22 14:23:22;;;;;;;2.22;2.00;;;;;;;;;;5008971;28;20347;-80
2021/06/22 14:25:50;;;;;;;5.32;3.72;;;;;;;;;;5007904;28;20385;-78
2021/06/22 14:28:21;;;;;;;18.42;4.65;;;;;;;;;;5007780;28;20485;-78
2021/06/22 14:30:49;;;;;;;10.27;3.85;;;;;;;;;;5008022;28;20604;-79
2021/06/22 14:33:16;;;;;;;3.90;2.28;;;;;;;;;;5009144;28;20440;-77
2021/06/22 14:35:42;;;;;;;8.70;2.33;;;;;;;;;;5007005;28;20029;-77
2021/06/22 14:38:08;;;;;;;10.13;3.03;;;;;;;;;;5007930;28;20034;-77
2021/06/22 14:40:33;;;;;;;5.93;2.92;;;;;;;;;;5006437;28;20026;-77
2021/06/22 14:42:59;;;;;;;5.20;2.40;;;;;;;;;;5008915;28;20022;-77